Time;durP1;ratioP1;P1;durP2;ratioP2;P2;SDS_P1;SDS_P2;PMS_P1;PMS_P2;Temp;Humidity;BMP_temperature;BMP_pressure;BME280_temperature;BME280_humidity;BME280_pressure;Samples;Min_cycle;Max_cycle;Signal;HPM_P1;HPM_P2
2023/10/30 00:02:10;;;;;;;2.60;1.73;;;14.80;99.90;;;;;;5034600;28;20199;-72
2023/10/30 00:04:36;;;;;;;1.90;1.37;;;14.70;99.90;;;;;;5034383;28;20196;-72
2023/10/30 00:07:02;;;;;;;1.70;1.40;;;14.70;99.90;;;;;;5034333;28;20245;-72
2023/10/30 00:09:28;;;;;;;2.07;1.60;;;14.70;99.90;;;;;;5034332;28;20170;-73
2023/10/30 00:11:54;;;;;;;2.23;1.53;;;14.70;99.90;;;;;;5034536;28;20667;-72
2023/10/30 00:14:20;;;;;;;2.33;1.53;;;14.40;99.90;;;;;;5034629;28;20582;-72
2023/10/30 00:16:45;;;;;;;2.20;1.80;;;14.50;99.90;;;;;;5034115;28;20529;-72
2023/10/30 00:19:11;;;;;;;2.47;1.50;;;14.50;99.90;;;;;;5034360;28;20173;-72
2023/10/30 00:21:36;;;;;;;1.53;1.27;;;14.50;99.90;;;;;;5034741;28;20267;-72
2023/10/30 00:24:02;;;;;;;1.60;1.50;;;14.60;99.90;;;;;;5034468;28;20171;-72
2023/10/30 00:26:29;;;;;;;3.33;2.10;;;14.50;99.90;;;;;;5033929;28;20690;-73
2023/10/30 00:28:57;;;;;;;1.70;1.50;;;14.40;99.90;;;;;;5033687;28;20588;-73
2023/10/30 00:31:22;;;;;;;2.37;1.70;;;14.60;99.90;;;;;;5033887;28;20413;-73
2023/10/30 00:33:49;;;;;;;2.70;1.63;;;14.70;99.90;;;;;;5034527;28;20467;-74
2023/10/30 00:36:14;;;;;;;1.83;1.53;;;14.70;99.90;;;;;;5033803;28;20326;-74
2023/10/30 00:38:40;;;;;;;2.40;2.20;;;14.70;99.90;;;;;;5033712;28;20481;-74
2023/10/30 00:41:08;;;;;;;1.97;1.77;;;14.70;99.90;;;;;;5033766;28;20193;-73
2023/10/30 00:43:33;;;;;;;2.17;1.67;;;14.80;99.90;;;;;;5033922;28;20172;-73
2023/10/30 00:45:59;;;;;;;2.30;1.80;;;14.70;99.90;;;;;;5033867;28;20452;-72
2023/10/30 00:48:25;;;;;;;2.93;1.67;;;14.60;99.90;;;;;;5033783;28;20169;-73
2023/10/30 00:50:51;;;;;;;2.80;1.90;;;14.50;99.90;;;;;;5033901;28;20164;-73
2023/10/30 00:53:16;;;;;;;2.60;1.67;;;14.70;99.90;;;;;;5033525;28;20459;-73
2023/10/30 00:55:42;;;;;;;2.67;2.10;;;14.70;99.90;;;;;;5033457;28;20218;-73
2023/10/30 00:58:07;;;;;;;2.10;1.80;;;14.60;99.90;;;;;;5033353;28;20201;-73
2023/10/30 01:00:34;;;;;;;2.23;2.03;;;14.60;99.90;;;;;;5033126;28;20236;-73
2023/10/30 01:02:59;;;;;;;2.73;1.70;;;14.70;99.90;;;;;;5033418;28;20256;-73
2023/10/30 01:05:25;;;;;;;2.27;1.77;;;14.80;99.90;;;;;;5033213;28;20409;-73
2023/10/30 01:07:50;;;;;;;2.07;1.50;;;14.90;99.90;;;;;;5033298;28;20233;-73
2023/10/30 01:10:16;;;;;;;2.20;1.73;;;14.90;99.90;;;;;;5033010;28;20628;-74
2023/10/30 01:12:42;;;;;;;2.83;1.20;;;14.90;99.90;;;;;;5033363;28;20189;-73
2023/10/30 01:15:08;;;;;;;2.53;1.77;;;15.00;99.90;;;;;;5033049;28;20167;-72
2023/10/30 01:17:33;;;;;;;1.40;1.13;;;14.80;99.90;;;;;;5033364;28;20201;-73
2023/10/30 01:20:02;;;;;;;3.93;1.67;;;14.80;99.90;;;;;;5033124;28;20402;-73
2023/10/30 01:22:28;;;;;;;1.47;1.37;;;14.80;99.90;;;;;;5033100;28;20201;-73
2023/10/30 01:24:53;;;;;;;2.20;1.30;;;14.80;99.90;;;;;;5033323;28;20483;-73
2023/10/30 01:27:19;;;;;;;2.07;1.17;;;14.80;99.90;;;;;;5032933;28;20230;-73
2023/10/30 01:29:44;;;;;;;2.50;1.37;;;14.90;99.90;;;;;;5032905;28;20260;-73
2023/10/30 01:32:10;;;;;;;1.80;1.20;;;14.90;99.90;;;;;;5033572;28;20172;-73
2023/10/30 01:34:35;;;;;;;1.63;1.37;;;14.80;99.90;;;;;;5032701;28;20178;-73
2023/10/30 01:37:01;;;;;;;1.60;1.30;;;14.80;99.90;;;;;;5032465;28;20192;-73
2023/10/30 01:39:27;;;;;;;1.20;1.10;;;14.70;99.90;;;;;;5032918;28;20175;-74
2023/10/30 01:41:53;;;;;;;2.47;1.33;;;14.80;99.90;;;;;;5032951;28;20439;-71
2023/10/30 01:44:18;;;;;;;1.47;1.10;;;14.90;99.90;;;;;;5032672;28;20164;-73
2023/10/30 01:46:44;;;;;;;1.20;1.10;;;15.00;99.90;;;;;;5032433;28;20514;-73
2023/10/30 01:49:10;;;;;;;1.67;1.00;;;15.10;99.90;;;;;;5032302;28;20169;-73
2023/10/30 01:51:36;;;;;;;1.43;0.93;;;15.10;99.90;;;;;;5032662;28;20651;-73
2023/10/30 01:54:02;;;;;;;3.00;1.67;;;15.10;99.90;;;;;;5032364;28;20406;-72
2023/10/30 01:56:28;;;;;;;1.43;1.00;;;15.10;99.90;;;;;;5032307;28;20420;-73
2023/10/30 01:58:54;;;;;;;1.30;1.20;;;15.20;99.90;;;;;;5032339;28;20175;-73
2023/10/30 02:01:21;;;;;;;2.07;1.50;;;15.10;99.90;;;;;;5032269;28;20517;-73
2023/10/30 02:03:48;;;;;;;2.00;1.10;;;15.10;99.90;;;;;;5032179;28;20926;-74
2023/10/30 02:06:14;;;;;;;1.37;1.27;;;15.10;99.90;;;;;;5032146;28;20440;-72
2023/10/30 02:08:40;;;;;;;4.10;0.83;;;15.10;99.90;;;;;;5032132;28;20406;-72
2023/10/30 02:11:05;;;;;;;2.00;1.20;;;15.10;99.90;;;;;;5032427;28;20185;-71
2023/10/30 02:13:31;;;;;;;1.60;1.20;;;15.10;99.90;;;;;;5032466;28;20243;-72
2023/10/30 02:15:57;;;;;;;3.13;1.23;;;15.10;99.90;;;;;;5057743;22;20205;-72
2023/10/30 02:18:22;;;;;;;1.67;1.00;;;15.10;99.90;;;;;;5052837;28;20172;-72
2023/10/30 02:20:48;;;;;;;2.70;1.10;;;14.90;99.90;;;;;;5053684;28;20226;-72
2023/10/30 02:23:14;;;;;;;2.50;1.00;;;14.80;99.90;;;;;;5038418;28;20203;-73
2023/10/30 02:25:39;;;;;;;1.60;1.10;;;14.80;99.90;;;;;;5056487;28;20589;-73
2023/10/30 02:28:05;;;;;;;1.17;1.00;;;14.80;99.90;;;;;;5056401;28;20170;-72
2023/10/30 02:30:31;;;;;;;3.70;1.33;;;14.80;99.90;;;;;;5056448;28;20588;-72
2023/10/30 02:32:56;;;;;;;2.77;1.10;;;14.80;99.90;;;;;;5056824;28;20172;-73
2023/10/30 02:35:22;;;;;;;1.07;0.97;;;14.80;99.90;;;;;;5056475;28;20423;-73
2023/10/30 02:37:48;;;;;;;1.50;1.00;;;14.70;99.90;;;;;;5056329;28;20239;-73
2023/10/30 02:40:14;;;;;;;1.87;1.10;;;14.60;99.90;;;;;;5056524;28;20897;-72
2023/10/30 02:42:40;;;;;;;2.33;1.00;;;14.50;99.90;;;;;;5056475;28;20577;-73
2023/10/30 02:45:07;;;;;;;3.47;1.40;;;14.40;99.90;;;;;;5056509;28;20625;-72
2023/10/30 02:47:33;;;;;;;2.50;1.60;;;14.20;99.90;;;;;;5055975;28;20499;-73
2023/10/30 02:49:58;;;;;;;1.53;1.43;;;14.20;99.90;;;;;;5056217;28;20779;-73
2023/10/30 02:52:24;;;;;;;3.00;1.70;;;14.10;99.90;;;;;;5038241;28;20405;-72
2023/10/30 02:54:50;;;;;;;3.73;1.90;;;14.10;99.90;;;;;;5056032;28;20247;-72
2023/10/30 02:57:15;;;;;;;1.87;1.20;;;13.90;99.90;;;;;;5055223;28;20205;-72
2023/10/30 02:59:41;;;;;;;2.23;2.03;;;13.90;99.90;;;;;;5056035;28;20167;-73
2023/10/30 03:02:07;;;;;;;1.73;1.63;;;13.90;99.90;;;;;;5055871;28;20199;-72
2023/10/30 03:04:33;;;;;;;2.63;1.97;;;13.90;99.90;;;;;;5055830;28;20402;-73
2023/10/30 03:07:00;;;;;;;1.67;1.57;;;13.90;99.90;;;;;;5055653;28;20418;-73
2023/10/30 03:09:31;;;;;;;15.60;2.87;;;14.00;99.90;;;;;;5055727;28;20409;-73
2023/10/30 03:11:57;;;;;;;2.23;2.03;;;14.00;99.90;;;;;;5038101;28;20927;-73
2023/10/30 03:14:24;;;;;;;2.83;2.63;;;14.10;99.90;;;;;;5055931;28;20408;-73
2023/10/30 03:16:50;;;;;;;1.90;1.73;;;14.10;99.90;;;;;;5055427;28;20449;-73
2023/10/30 03:19:18;;;;;;;2.70;1.93;;;14.10;99.90;;;;;;5055716;28;20456;-73
2023/10/30 03:21:43;;;;;;;4.23;2.50;;;14.20;99.90;;;;;;5055799;28;20451;-73
2023/10/30 03:24:09;;;;;;;3.70;2.40;;;14.20;99.90;;;;;;5055552;28;20453;-72
2023/10/30 03:26:35;;;;;;;2.30;1.90;;;14.20;99.90;;;;;;5055598;28;20190;-72
2023/10/30 03:29:00;;;;;;;2.20;1.60;;;14.20;99.90;;;;;;5055495;28;20257;-73
2023/10/30 03:31:26;;;;;;;1.73;1.63;;;14.30;99.90;;;;;;5055036;28;20172;-72
2023/10/30 03:33:51;;;;;;;1.97;1.37;;;14.30;99.90;;;;;;5055282;28;20177;-73
2023/10/30 03:36:21;;;;;;;2.10;1.70;;;14.30;99.90;;;;;;5055263;28;20730;-73
2023/10/30 03:38:46;;;;;;;1.97;1.40;;;14.40;99.90;;;;;;5055218;28;20218;-73
2023/10/30 03:41:12;;;;;;;2.00;1.73;;;14.40;99.90;;;;;;5055221;28;20452;-72
2023/10/30 03:43:37;;;;;;;1.63;1.50;;;14.50;99.90;;;;;;5055184;28;20636;-73
2023/10/30 03:46:04;;;;;;;1.83;1.60;;;14.40;99.90;;;;;;5055309;28;20270;-72
2023/10/30 03:48:30;;;;;;;2.60;1.90;;;14.30;99.90;;;;;;5054789;28;20183;-73
2023/10/30 03:50:55;;;;;;;2.10;1.30;;;14.30;99.90;;;;;;5055126;28;20450;-73
2023/10/30 03:53:21;;;;;;;1.77;1.67;;;14.30;99.90;;;;;;5054491;28;20503;-73
2023/10/30 03:55:47;;;;;;;5.13;1.60;;;14.30;99.90;;;;;;5054673;28;20185;-73
2023/10/30 03:58:12;;;;;;;6.20;1.67;;;14.10;99.90;;;;;;5054987;28;20187;-73
2023/10/30 04:00:38;;;;;;;3.17;1.97;;;14.10;99.90;;;;;;5054398;28;20377;-72
2023/10/30 04:03:03;;;;;;;3.10;1.93;;;14.00;99.90;;;;;;5054799;28;20170;-72
2023/10/30 04:05:29;;;;;;;1.80;1.43;;;13.90;99.90;;;;;;5054732;28;20174;-72
2023/10/30 04:07:55;;;;;;;2.03;1.87;;;13.80;99.90;;;;;;5036925;28;20220;-72
2023/10/30 04:10:20;;;;;;;2.80;1.67;;;13.80;99.90;;;;;;5054567;28;20244;-73
2023/10/30 04:12:46;;;;;;;4.03;1.73;;;13.90;99.90;;;;;;5054641;28;20205;-72
2023/10/30 04:15:11;;;;;;;2.37;1.90;;;13.90;99.90;;;;;;5054681;28;20167;-73
2023/10/30 04:17:37;;;;;;;2.70;1.77;;;13.90;99.90;;;;;;5054243;28;20212;-73
2023/10/30 04:20:03;;;;;;;2.13;1.50;;;13.90;99.90;;;;;;5054779;28;20172;-73
2023/10/30 04:22:29;;;;;;;4.00;2.50;;;13.90;99.90;;;;;;5054648;28;20198;-73
2023/10/30 04:24:54;;;;;;;7.47;2.60;;;13.90;99.90;;;;;;5054358;28;20420;-72
2023/10/30 04:27:21;;;;;;;2.07;1.73;;;13.90;99.90;;;;;;5054255;28;20254;-73
2023/10/30 04:29:47;;;;;;;1.90;1.70;;;13.90;99.90;;;;;;5053691;28;20167;-72
2023/10/30 04:32:12;;;;;;;2.40;1.83;;;13.90;99.90;;;;;;5053920;28;20438;-72
2023/10/30 04:34:38;;;;;;;2.60;1.70;;;13.90;99.90;;;;;;5054410;28;20906;-73
2023/10/30 04:37:05;;;;;;;2.00;1.43;;;13.90;99.90;;;;;;5036305;28;20571;-73
2023/10/30 04:39:30;;;;;;;1.83;1.40;;;13.80;99.90;;;;;;5054420;28;20176;-73
2023/10/30 04:41:56;;;;;;;1.77;1.53;;;13.80;99.90;;;;;;5054205;28;20466;-73
2023/10/30 04:44:22;;;;;;;2.00;1.67;;;13.80;99.90;;;;;;5053260;28;20167;-72
2023/10/30 04:46:47;;;;;;;2.90;1.40;;;13.70;99.90;;;;;;5053982;28;20190;-73
2023/10/30 04:49:13;;;;;;;2.33;1.70;;;13.70;99.90;;;;;;5053481;28;20181;-73
2023/10/30 04:51:38;;;;;;;2.03;1.57;;;13.70;99.90;;;;;;5054578;28;20187;-73
2023/10/30 04:54:04;;;;;;;2.60;1.60;;;13.60;99.90;;;;;;5054236;28;20182;-73
2023/10/30 04:56:30;;;;;;;1.67;1.30;;;13.60;99.90;;;;;;5054751;28;20202;-73
2023/10/30 04:58:55;;;;;;;3.10;1.67;;;13.70;99.90;;;;;;5054400;28;20448;-73
2023/10/30 05:01:21;;;;;;;1.87;1.67;;;13.70;99.90;;;;;;5054223;28;20201;-72
2023/10/30 05:03:46;;;;;;;2.73;1.63;;;13.70;99.90;;;;;;5054775;28;20171;-72
2023/10/30 05:06:13;;;;;;;3.37;1.70;;;13.80;99.90;;;;;;5054584;28;20194;-73
2023/10/30 05:08:39;;;;;;;1.70;1.30;;;13.80;99.90;;;;;;5053887;28;20537;-73
2023/10/30 05:11:04;;;;;;;1.03;0.93;;;13.80;99.90;;;;;;5053493;28;20437;-72
2023/10/30 05:13:30;;;;;;;3.63;1.60;;;13.80;99.90;;;;;;5053477;28;20474;-73
2023/10/30 05:15:59;;;;;;;4.10;1.50;;;13.80;99.90;;;;;;5053000;28;20256;-72
2023/10/30 05:18:25;;;;;;;4.07;1.87;;;13.90;99.90;;;;;;5052959;28;20702;-73
2023/10/30 05:20:51;;;;;;;1.93;1.50;;;13.80;99.90;;;;;;5053296;28;20463;-72
2023/10/30 05:23:16;;;;;;;2.30;1.23;;;13.80;99.90;;;;;;5053264;28;20803;-72
2023/10/30 05:25:42;;;;;;;2.47;1.90;;;13.80;99.90;;;;;;5053240;28;20437;-72
2023/10/30 05:28:08;;;;;;;1.60;1.47;;;13.70;99.90;;;;;;5035213;28;20853;-72
2023/10/30 05:30:35;;;;;;;5.27;1.60;;;13.60;99.90;;;;;;5053417;28;20416;-72
2023/10/30 05:33:01;;;;;;;1.73;1.63;;;13.50;99.90;;;;;;5051297;28;20566;-72
2023/10/30 05:35:26;;;;;;;2.17;1.73;;;13.40;99.90;;;;;;5043813;28;20455;-72
2023/10/30 05:37:52;;;;;;;2.63;1.90;;;13.30;99.90;;;;;;5043304;28;20652;-73
2023/10/30 05:40:17;;;;;;;2.93;1.90;;;13.30;99.90;;;;;;5043704;28;20187;-72
2023/10/30 05:42:43;;;;;;;2.13;1.93;;;13.30;99.90;;;;;;5043410;28;20485;-73
2023/10/30 05:45:09;;;;;;;2.37;2.17;;;13.30;99.90;;;;;;5049528;28;20305;-72
2023/10/30 05:47:34;;;;;;;3.00;2.30;;;13.30;99.90;;;;;;5052778;28;20193;-72
2023/10/30 05:50:00;;;;;;;3.73;2.80;;;13.30;99.90;;;;;;5052862;28;20220;-72
2023/10/30 05:52:25;;;;;;;3.50;2.73;;;13.20;99.90;;;;;;5052913;28;20171;-72
2023/10/30 05:54:51;;;;;;;3.03;2.80;;;13.20;99.90;;;;;;5052366;28;20182;-72
2023/10/30 05:57:17;;;;;;;3.70;3.00;;;13.10;99.90;;;;;;5052707;28;20338;-72
2023/10/30 05:59:42;;;;;;;2.90;2.60;;;13.00;99.90;;;;;;5052786;28;20204;-72
2023/10/30 06:02:08;;;;;;;4.30;3.50;;;13.00;99.90;;;;;;5052636;28;20217;-72
2023/10/30 06:04:33;;;;;;;3.90;3.50;;;12.90;99.90;;;;;;5052530;28;20247;-72
2023/10/30 06:06:59;;;;;;;4.27;3.83;;;12.90;99.90;;;;;;5052705;28;20325;-72
2023/10/30 06:09:26;;;;;;;6.03;5.07;;;12.80;99.90;;;;;;5034584;28;20165;-73
2023/10/30 06:11:52;;;;;;;5.37;4.83;;;12.80;99.90;;;;;;5053023;28;20188;-72
2023/10/30 06:14:18;;;;;;;6.83;5.20;;;12.80;99.90;;;;;;5052661;28;20405;-72
2023/10/30 06:16:44;;;;;;;9.73;5.10;;;12.70;99.90;;;;;;5052392;28;20205;-72
2023/10/30 06:19:10;;;;;;;7.03;4.73;;;12.70;99.90;;;;;;5052478;28;20669;-71
2023/10/30 06:21:38;;;;;;;6.50;4.97;;;12.70;99.90;;;;;;5052825;28;20249;-72
2023/10/30 06:24:07;;;;;;;5.23;4.83;;;12.70;99.90;;;;;;5052122;28;20410;-73
2023/10/30 06:26:33;;;;;;;6.10;5.60;;;12.70;99.90;;;;;;5052001;28;20521;-73
2023/10/30 06:28:58;;;;;;;4.80;4.40;;;12.60;99.90;;;;;;5052614;28;20865;-73
2023/10/30 06:31:24;;;;;;;6.47;5.83;;;12.70;99.90;;;;;;5052235;28;20191;-72
2023/10/30 06:33:49;;;;;;;7.30;5.10;;;12.70;99.90;;;;;;5052377;28;20182;-73
2023/10/30 06:36:15;;;;;;;5.20;4.77;;;12.60;99.90;;;;;;5052262;28;20225;-72
2023/10/30 06:38:41;;;;;;;5.60;5.10;;;12.60;99.90;;;;;;5052731;28;20181;-73
2023/10/30 06:41:06;;;;;;;5.90;5.30;;;12.60;99.90;;;;;;5052342;28;20224;-73
2023/10/30 06:43:32;;;;;;;5.57;5.07;;;12.60;99.90;;;;;;5052732;28;20649;-73
2023/10/30 06:46:04;;;;;;;5.27;4.87;;;12.70;99.90;;;;;;5052259;28;20205;-72
2023/10/30 06:48:31;;;;;;;7.20;6.47;;;12.70;99.90;;;;;;5052456;28;20201;-73
2023/10/30 06:50:57;;;;;;;6.30;5.80;;;12.90;99.90;;;;;;5052278;28;20406;-73
2023/10/30 06:53:23;;;;;;;7.10;6.40;;;13.00;99.90;;;;;;5051752;28;20438;-73
2023/10/30 06:55:50;;;;;;;5.10;4.70;;;13.10;99.90;;;;;;5052720;28;20444;-73
2023/10/30 06:58:21;;;;;;;4.67;4.27;;;13.20;99.90;;;;;;5052413;28;20863;-72
2023/10/30 07:00:47;;;;;;;6.90;6.20;;;13.20;99.90;;;;;;5052638;28;20937;-73
2023/10/30 07:03:12;;;;;;;7.60;6.80;;;13.30;99.90;;;;;;5052380;28;20405;-73
2023/10/30 07:05:38;;;;;;;5.80;5.20;;;13.30;99.90;;;;;;5034399;28;20253;-73
2023/10/30 07:08:04;;;;;;;5.43;4.93;;;13.30;99.90;;;;;;5054663;28;20167;-73
2023/10/30 07:10:30;;;;;;;5.77;5.27;;;13.40;99.90;;;;;;5056150;28;20176;-72
2023/10/30 07:12:55;;;;;;;7.20;6.60;;;13.40;99.90;;;;;;5038065;28;20999;-73
2023/10/30 07:15:21;;;;;;;7.17;6.47;;;13.40;99.90;;;;;;5055874;28;20163;-72
2023/10/30 07:17:47;;;;;;;6.63;5.93;;;13.40;99.90;;;;;;5037473;28;20211;-73
2023/10/30 07:20:14;;;;;;;5.77;5.30;;;13.30;99.90;;;;;;5056056;28;20177;-73
2023/10/30 07:22:39;;;;;;;5.57;5.07;;;13.30;99.90;;;;;;5055830;28;20457;-72
2023/10/30 07:25:06;;;;;;;4.27;3.97;;;13.40;99.90;;;;;;5055732;28;20404;-73
2023/10/30 07:27:33;;;;;;;5.47;5.07;;;13.50;99.90;;;;;;5055398;28;20182;-72
2023/10/30 07:29:59;;;;;;;6.37;5.77;;;13.50;99.90;;;;;;5055705;28;20402;-72
2023/10/30 07:32:25;;;;;;;7.13;5.87;;;13.50;99.90;;;;;;5055570;28;20404;-73
2023/10/30 07:34:50;;;;;;;7.73;6.37;;;13.40;99.90;;;;;;5055730;28;20408;-73
2023/10/30 07:37:16;;;;;;;6.60;6.00;;;13.50;99.90;;;;;;5055254;28;20213;-72
2023/10/30 07:39:42;;;;;;;6.37;5.70;;;13.60;99.90;;;;;;5055108;28;20170;-73
2023/10/30 07:42:07;;;;;;;6.73;4.87;;;13.70;99.90;;;;;;5055117;28;20204;-72
2023/10/30 07:44:33;;;;;;;7.33;4.97;;;13.80;99.90;;;;;;5055204;28;20168;-73
2023/10/30 07:46:59;;;;;;;4.97;4.60;;;13.70;99.90;;;;;;5055070;28;20182;-72
2023/10/30 07:49:24;;;;;;;6.57;5.30;;;13.70;99.90;;;;;;5037554;28;20165;-73
2023/10/30 07:51:50;;;;;;;4.97;4.23;;;13.70;99.90;;;;;;5055325;28;20259;-72
2023/10/30 07:54:15;;;;;;;5.30;4.80;;;13.70;99.90;;;;;;5037356;28;20170;-72
2023/10/30 07:56:42;;;;;;;5.60;5.10;;;13.80;99.90;;;;;;5055306;28;20213;-73
2023/10/30 07:59:07;;;;;;;6.37;5.80;;;13.80;99.90;;;;;;5054910;28;20184;-72
2023/10/30 08:01:36;;;;;;;6.27;5.67;;;13.90;99.90;;;;;;5055114;28;20452;-72
2023/10/30 08:04:02;;;;;;;6.10;5.60;;;13.90;99.90;;;;;;5054447;28;20173;-73
2023/10/30 08:06:27;;;;;;;6.30;4.63;;;13.90;99.90;;;;;;5054573;28;20937;-72
2023/10/30 08:08:53;;;;;;;5.50;5.00;;;14.00;99.90;;;;;;5054979;28;20209;-73
2023/10/30 08:11:19;;;;;;;5.50;5.00;;;14.20;99.90;;;;;;5054691;28;20699;-73
2023/10/30 08:13:45;;;;;;;5.93;5.33;;;14.20;99.90;;;;;;5055036;28;20166;-72
2023/10/30 08:16:11;;;;;;;5.60;5.10;;;14.30;99.90;;;;;;5076384;22;20211;-72
2023/10/30 08:18:38;;;;;;;5.87;5.27;;;14.20;99.90;;;;;;5012962;28;20398;-72
2023/10/30 08:21:04;;;;;;;5.73;5.20;;;14.30;99.90;;;;;;5014096;28;20342;-72
2023/10/30 08:23:30;;;;;;;5.90;5.30;;;14.30;99.90;;;;;;5014141;28;20410;-71
2023/10/30 08:25:56;;;;;;;6.23;5.63;;;14.20;99.90;;;;;;5014013;28;20462;-72
2023/10/30 08:28:21;;;;;;;5.77;4.57;;;14.20;99.90;;;;;;5013929;28;20483;-71
2023/10/30 08:30:47;;;;;;;5.03;4.53;;;14.40;99.90;;;;;;5013773;28;20175;-73
2023/10/30 08:33:12;;;;;;;4.60;4.17;;;14.60;99.90;;;;;;5014071;28;20179;-72
2023/10/30 08:35:38;;;;;;;7.10;4.83;;;14.60;99.90;;;;;;5013969;28;20177;-72
2023/10/30 08:38:04;;;;;;;5.80;5.27;;;14.70;99.90;;;;;;5013494;28;20325;-72
2023/10/30 08:40:29;;;;;;;4.70;4.30;;;14.80;99.90;;;;;;5013491;28;20181;-72
2023/10/30 08:42:55;;;;;;;5.03;4.50;;;14.80;99.90;;;;;;5013478;28;20174;-72
2023/10/30 08:45:22;;;;;;;5.63;5.07;;;15.00;99.90;;;;;;5013637;28;20243;-72
2023/10/30 08:47:48;;;;;;;4.80;4.40;;;15.10;99.90;;;;;;5013802;28;20252;-72
2023/10/30 08:50:14;;;;;;;5.10;4.60;;;15.10;99.90;;;;;;4995968;28;20506;-72
2023/10/30 08:52:40;;;;;;;7.13;4.93;;;15.20;99.90;;;;;;5014061;28;20438;-74
2023/10/30 08:55:06;;;;;;;5.13;3.83;;;15.20;99.90;;;;;;5013751;28;20183;-73
2023/10/30 08:57:32;;;;;;;5.53;5.03;;;15.20;99.90;;;;;;5013362;28;21008;-72
2023/10/30 08:59:58;;;;;;;4.33;3.80;;;15.00;99.90;;;;;;5012887;28;20406;-72
2023/10/30 09:02:23;;;;;;;3.93;3.63;;;15.20;99.90;;;;;;5013332;28;20569;-72
2023/10/30 09:04:49;;;;;;;6.97;3.57;;;15.40;99.90;;;;;;5013382;28;20167;-73
2023/10/30 09:07:16;;;;;;;4.60;4.20;;;15.50;99.90;;;;;;5013726;28;20199;-72
2023/10/30 09:09:42;;;;;;;4.10;3.70;;;15.60;99.90;;;;;;5013067;28;20168;-73
2023/10/30 09:12:08;;;;;;;3.90;3.57;;;15.50;99.90;;;;;;5013302;28;20425;-73
2023/10/30 09:14:33;;;;;;;4.13;3.83;;;15.50;99.90;;;;;;5013050;28;20401;-71
2023/10/30 09:16:59;;;;;;;6.40;3.90;;;15.60;99.90;;;;;;5012945;28;20565;-72
2023/10/30 09:19:24;;;;;;;5.70;4.30;;;15.60;99.90;;;;;;5013134;28;20654;-72
2023/10/30 09:21:50;;;;;;;5.23;3.63;;;15.70;99.90;;;;;;5013128;28;20199;-72
2023/10/30 09:24:16;;;;;;;4.47;4.07;;;15.80;99.90;;;;;;5013151;28;20188;-72
2023/10/30 09:26:41;;;;;;;4.50;4.10;;;15.90;99.90;;;;;;5012888;28;20226;-72
2023/10/30 09:29:07;;;;;;;4.37;3.87;;;15.90;99.90;;;;;;5012783;28;20179;-72
2023/10/30 09:31:33;;;;;;;6.23;3.57;;;15.80;99.90;;;;;;5013012;28;20550;-72
2023/10/30 09:33:59;;;;;;;3.33;3.03;;;16.10;99.90;;;;;;4995141;28;20419;-73
2023/10/30 09:36:25;;;;;;;4.50;4.10;;;16.30;99.90;;;;;;5012839;28;20291;-73
2023/10/30 09:38:50;;;;;;;4.10;3.57;;;16.40;99.90;;;;;;5012799;28;20446;-72
2023/10/30 09:41:18;;;;;;;4.80;3.20;;;16.20;99.90;;;;;;5012859;28;20760;-72
2023/10/30 09:43:47;;;;;;;3.60;3.30;;;16.30;99.90;;;;;;5012782;28;20196;-73
2023/10/30 09:46:14;;;;;;;3.90;3.60;;;16.50;99.90;;;;;;5012880;28;20493;-73
2023/10/30 09:48:43;;;;;;;6.10;3.43;;;16.40;99.90;;;;;;4995154;28;20454;-73
2023/10/30 09:51:10;;;;;;;4.03;3.60;;;16.50;99.90;;;;;;5012637;28;20418;-72
2023/10/30 09:53:37;;;;;;;3.93;3.30;;;16.70;99.90;;;;;;5013023;28;20454;-73
2023/10/30 09:56:06;;;;;;;3.80;3.50;;;17.00;99.90;;;;;;5012649;28;20403;-73
2023/10/30 09:58:32;;;;;;;5.00;3.80;;;16.90;99.90;;;;;;5012941;28;20512;-72
2023/10/30 10:00:59;;;;;;;6.43;4.00;;;17.00;99.90;;;;;;5012603;28;20438;-71
2023/10/30 10:03:25;;;;;;;5.97;3.53;;;17.10;99.90;;;;;;5012676;28;20421;-72
2023/10/30 10:05:55;;;;;;;3.60;3.30;;;17.40;99.90;;;;;;5012790;28;20897;-73
2023/10/30 10:08:21;;;;;;;3.97;3.57;;;17.40;99.90;;;;;;5012295;28;20243;-73
2023/10/30 10:10:58;;;;;;;3.80;2.83;;;17.60;99.90;;;;;;5012582;28;20411;-74
2023/10/30 10:13:24;;;;;;;4.20;3.80;;;17.90;99.90;;;;;;5012652;28;20872;-73
2023/10/30 10:15:51;;;;;;;3.30;3.00;;;18.10;99.90;;;;;;5012191;28;20494;-73
2023/10/30 10:18:28;;;;;;;3.53;3.23;;;18.00;99.90;;;;;;5012108;28;20446;-71
2023/10/30 10:21:03;;;;;;;4.23;3.10;;;18.00;99.90;;;;;;5012081;28;20438;-71
2023/10/30 10:23:31;;;;;;;3.73;3.00;;;18.00;99.90;;;;;;5011738;28;20402;-72
2023/10/30 10:25:57;;;;;;;3.30;3.00;;;18.00;99.90;;;;;;5012108;28;20416;-71
2023/10/30 10:28:24;;;;;;;2.63;2.43;;;18.10;99.90;;;;;;5011873;28;20433;-72
2023/10/30 10:30:51;;;;;;;4.03;2.80;;;18.20;99.90;;;;;;5012291;28;20776;-72
2023/10/30 10:33:27;;;;;;;3.70;2.60;;;18.20;99.90;;;;;;5012078;28;20878;-71
2023/10/30 10:36:01;;;;;;;2.83;2.57;;;18.30;99.90;;;;;;5012583;28;20777;-71
2023/10/30 10:38:27;;;;;;;3.23;2.70;;;18.30;99.90;;;;;;5012329;28;20410;-72
2023/10/30 10:40:55;;;;;;;2.67;2.47;;;18.40;99.90;;;;;;5011985;28;20493;-71
2023/10/30 10:43:22;;;;;;;2.67;2.03;;;18.70;99.90;;;;;;5015264;28;20411;-71
2023/10/30 10:45:49;;;;;;;4.20;2.83;;;18.60;99.90;;;;;;5015846;28;20910;-72
2023/10/30 10:48:16;;;;;;;3.53;2.60;;;18.80;99.90;;;;;;5015834;28;20461;-73
2023/10/30 10:50:42;;;;;;;4.73;2.70;;;18.80;99.90;;;;;;5015999;28;20962;-73
2023/10/30 10:53:09;;;;;;;2.23;2.00;;;18.80;99.90;;;;;;5015992;28;20431;-72
2023/10/30 10:55:45;;;;;;;3.67;2.30;;;18.80;99.90;;;;;;5016071;28;20406;-73
2023/10/30 10:58:14;;;;;;;3.27;2.20;;;18.70;99.90;;;;;;5015651;28;20426;-72
2023/10/30 11:00:48;;;;;;;2.37;2.17;;;18.70;99.90;;;;;;5015786;28;20399;-72
2023/10/30 11:03:14;;;;;;;2.00;1.80;;;18.70;99.90;;;;;;5015286;28;20422;-72
2023/10/30 11:05:41;;;;;;;2.70;1.90;;;18.80;99.90;;;;;;5015565;28;20878;-72
2023/10/30 11:08:25;;;;;;;2.73;2.00;;;18.70;99.90;;;;;;5014839;28;20532;-72
2023/10/30 11:10:56;;;;;;;2.80;1.93;;;18.80;99.90;;;;;;5015842;28;20521;-72
2023/10/30 11:13:39;;;;;;;2.10;1.80;;;18.80;99.90;;;;;;5016054;28;20464;-72
2023/10/30 11:16:29;;;;;;;4.23;2.27;;;18.90;99.90;;;;;;5015321;28;20426;-72
2023/10/30 11:18:59;;;;;;;2.90;2.60;;;18.80;99.90;;;;;;5014539;28;20441;-72
2023/10/30 11:21:28;;;;;;;2.20;2.00;;;18.90;99.90;;;;;;5015211;28;20877;-73
2023/10/30 11:23:58;;;;;;;2.80;1.93;;;18.80;99.90;;;;;;5015363;28;20407;-73
2023/10/30 11:26:30;;;;;;;2.13;1.93;;;18.70;99.90;;;;;;4997738;28;20427;-73
2023/10/30 11:29:22;;;;;;;3.93;1.53;;;18.40;99.90;;;;;;5015401;28;20413;-72
2023/10/30 11:31:51;;;;;;;6.03;1.50;;;18.40;99.90;;;;;;4971818;28;20561;-72
2023/10/30 11:34:17;;;;;;;5.53;1.50;;;18.30;99.90;;;;;;5015375;28;20878;-72
2023/10/30 11:36:46;;;;;;;4.10;1.37;;;18.40;99.90;;;;;;5015315;28;20430;-72
2023/10/30 11:39:20;;;;;;;2.03;1.20;;;18.10;99.90;;;;;;4995608;28;20183;-72
2023/10/30 11:41:50;;;;;;;2.97;1.90;;;17.60;99.90;;;;;;4995657;28;20993;-72
2023/10/30 11:44:16;;;;;;;4.10;1.33;;;17.60;99.90;;;;;;4995617;28;20388;-73
2023/10/30 11:46:46;;;;;;;3.07;1.57;;;17.60;99.90;;;;;;4995600;28;20435;-73
2023/10/30 11:49:17;;;;;;;6.10;1.50;;;17.60;99.90;;;;;;4995640;28;20416;-72
2023/10/30 11:51:45;;;;;;;2.40;1.67;;;17.40;99.90;;;;;;4995580;28;20782;-72
2023/10/30 11:54:11;;;;;;;1.53;1.20;;;17.60;99.90;;;;;;4995212;28;20411;-72
2023/10/30 11:56:47;;;;;;;4.53;1.70;;;17.80;99.90;;;;;;4995085;28;20909;-72
2023/10/30 11:59:14;;;;;;;4.40;1.60;;;17.90;99.90;;;;;;4995132;28;20384;-73
2023/10/30 12:01:41;;;;;;;1.77;1.30;;;17.90;99.90;;;;;;4994952;28;21043;-72
2023/10/30 12:04:06;;;;;;;3.73;1.47;;;18.00;99.90;;;;;;4995523;28;20474;-72
2023/10/30 12:06:32;;;;;;;1.83;1.33;;;18.10;99.90;;;;;;4995139;28;20927;-72
2023/10/30 12:08:57;;;;;;;4.53;1.60;;;18.00;99.90;;;;;;5012587;28;20643;-71
2023/10/30 12:11:23;;;;;;;2.60;1.60;;;18.10;99.90;;;;;;5014354;28;20491;-72
2023/10/30 12:13:50;;;;;;;2.03;1.60;;;18.20;99.90;;;;;;5013636;28;20549;-73
2023/10/30 12:16:16;;;;;;;1.67;1.30;;;18.50;99.90;;;;;;5014288;28;20194;-72
2023/10/30 12:18:42;;;;;;;3.10;1.60;;;18.70;99.90;;;;;;5014156;28;20754;-72
2023/10/30 12:21:07;;;;;;;2.37;1.50;;;19.00;99.90;;;;;;5014069;28;20254;-72
2023/10/30 12:23:33;;;;;;;3.47;1.40;;;19.10;99.90;;;;;;5014553;28;20167;-72
2023/10/30 12:26:05;;;;;;;1.77;1.27;;;19.00;99.90;;;;;;5014427;28;20177;-72
2023/10/30 12:28:37;;;;;;;1.67;1.30;;;18.70;99.90;;;;;;5014167;28;20167;-73
2023/10/30 12:31:19;;;;;;;2.83;1.47;;;18.60;99.90;;;;;;5014121;28;20415;-72
2023/10/30 12:33:44;;;;;;;1.20;1.00;;;18.60;99.90;;;;;;5013862;28;20411;-72
2023/10/30 12:36:10;;;;;;;2.67;1.43;;;18.60;99.90;;;;;;5014066;28;20421;-73
2023/10/30 12:38:36;;;;;;;1.90;1.30;;;18.40;99.90;;;;;;5014061;28;20595;-72
2023/10/30 12:41:06;;;;;;;2.33;1.43;;;18.40;99.90;;;;;;5014032;28;20196;-72
2023/10/30 12:43:41;;;;;;;2.93;1.67;;;18.60;99.90;;;;;;5014976;28;20660;-72
2023/10/30 12:46:07;;;;;;;1.70;1.30;;;18.80;99.90;;;;;;5013850;28;20403;-72